Time;durP1;ratioP1;P1;durP2;ratioP2;P2;SDS_P1;SDS_P2;PMS_P1;PMS_P2;Temp;Humidity;BMP_temperature;BMP_pressure;BME280_temperature;BME280_humidity;BME280_pressure;Samples;Min_cycle;Max_cycle;Signal;HPM_P1;HPM_P2
2023/05/06 00:00:11;;;;;;;11.40;10.30;;;;;;;16.60;100.00;98272.38;4169663;28;20633;-79
2023/05/06 00:02:18;;;;;;;13.73;10.97;;;;;;;16.56;100.00;98268.34;4170206;28;20630;-79
2023/05/06 00:04:21;;;;;;;11.43;10.40;;;;;;;16.55;100.00;98279.88;4167330;28;20653;-79
2023/05/06 00:06:24;;;;;;;11.10;10.00;;;;;;;16.53;100.00;98276.53;4157150;28;21171;-79
2023/05/06 00:08:27;;;;;;;10.80;9.80;;;;;;;16.53;100.00;98275.72;4167398;28;20626;-80
2023/05/06 00:10:31;;;;;;;11.53;10.33;;;;;;;16.50;100.00;98271.53;4171853;28;20660;-82
2023/05/06 00:12:34;;;;;;;10.90;9.80;;;;;;;16.50;100.00;98276.81;4174607;28;20629;-82
2023/05/06 00:14:37;;;;;;;10.73;9.73;;;;;;;16.50;100.00;98279.44;4180708;28;20689;-82
2023/05/06 00:16:40;;;;;;;11.70;10.50;;;;;;;16.50;100.00;98276.81;4168489;28;20645;-82
2023/05/06 00:18:45;;;;;;;11.00;9.90;;;;;;;16.50;100.00;98274.16;4166322;28;21190;-82
2023/05/06 00:20:48;;;;;;;11.17;10.17;;;;;;;16.50;100.00;98275.97;4170312;28;20662;-82
2023/05/06 00:22:51;;;;;;;11.93;10.77;;;;;;;16.50;100.00;98278.63;4171009;28;20662;-82
2023/05/06 00:24:54;;;;;;;11.27;10.17;;;;;;;16.50;100.00;98276.81;4167812;28;20640;-82
2023/05/06 00:26:57;;;;;;;12.90;11.70;;;;;;;16.51;100.00;98269.75;4173620;28;20701;-82
2023/05/06 00:29:00;;;;;;;12.20;10.90;;;;;;;16.51;100.00;98273.22;4171699;28;20668;-82
2023/05/06 00:31:03;;;;;;;10.97;9.87;;;;;;;16.51;100.00;98267.13;4168136;28;21043;-82
2023/05/06 00:33:06;;;;;;;12.07;10.97;;;;;;;16.49;100.00;98266.41;4154574;28;20639;-82
2023/05/06 00:35:12;;;;;;;12.17;10.90;;;;;;;16.46;100.00;98273.75;4156462;28;20681;-82
2023/05/06 00:37:15;;;;;;;12.97;11.70;;;;;;;16.45;100.00;98269.44;4181718;28;20645;-82
2023/05/06 00:39:18;;;;;;;13.70;11.20;;;;;;;16.44;100.00;98273.06;4148043;28;20762;-82
2023/05/06 00:41:21;;;;;;;12.77;11.57;;;;;;;16.43;100.00;98269.59;4171708;28;21078;-82
2023/05/06 00:43:24;;;;;;;11.53;10.43;;;;;;;16.43;100.00;98263.50;4171367;28;20662;-82
2023/05/06 00:45:27;;;;;;;11.87;10.73;;;;;;;16.43;100.00;98272.22;4168242;28;20636;-82
2023/05/06 00:47:31;;;;;;;14.00;11.73;;;;;;;16.44;100.00;98271.25;4167328;28;20738;-82
2023/05/06 00:49:34;;;;;;;12.27;11.10;;;;;;;16.44;100.00;98271.25;4170940;28;20794;-82
2023/05/06 00:51:39;;;;;;;12.57;11.37;;;;;;;16.44;100.00;98273.88;4170170;28;20658;-82
2023/05/06 00:53:42;;;;;;;12.20;11.10;;;;;;;16.46;100.00;98263.22;4173562;28;21565;-82
2023/05/06 00:55:45;;;;;;;13.90;12.60;;;;;;;16.45;100.00;98272.94;4172985;28;20633;-82
2023/05/06 00:57:49;;;;;;;12.50;11.30;;;;;;;16.45;100.00;98280.84;4168334;28;20664;-82
2023/05/06 00:59:52;;;;;;;12.43;11.23;;;;;;;16.45;100.00;98285.25;4170350;28;21243;-82
2023/05/06 01:01:55;;;;;;;13.30;12.00;;;;;;;16.44;100.00;98276.53;4173846;28;21255;-82
2023/05/06 01:03:59;;;;;;;13.80;11.73;;;;;;;16.44;100.00;98270.44;4167178;28;21218;-82
2023/05/06 01:06:08;;;;;;;15.57;14.00;;;;;;;16.42;100.00;98272.34;4170656;28;20664;-82
2023/05/06 01:08:17;;;;;;;13.80;12.47;;;;;;;16.41;100.00;98271.53;4151951;28;20638;-82
2023/05/06 01:10:26;;;;;;;13.10;11.73;;;;;;;16.42;100.00;98261.81;4167625;28;20648;-82
2023/05/06 01:12:32;;;;;;;13.60;12.10;;;;;;;16.41;100.00;98262.81;4172776;28;21258;-82
2023/05/06 01:14:39;;;;;;;13.20;11.87;;;;;;;16.41;100.00;98262.81;4155973;28;20639;-82
2023/05/06 01:16:43;;;;;;;13.80;11.20;;;;;;;16.39;100.00;98267.34;4172144;28;20635;-82
2023/05/06 01:18:48;;;;;;;19.00;10.83;;;;;;;16.36;100.00;98267.66;4165632;28;21082;-82
2023/05/06 01:20:53;;;;;;;11.80;10.60;;;;;;;16.34;100.00;98261.69;4167494;28;20642;-82
2023/05/06 01:22:56;;;;;;;15.73;10.43;;;;;;;16.32;100.00;98261.00;4168903;28;20634;-82
2023/05/06 01:25:01;;;;;;;16.20;11.13;;;;;;;16.30;100.00;98252.41;4149729;28;20665;-82
2023/05/06 01:27:05;;;;;;;11.93;10.70;;;;;;;16.27;100.00;98263.19;4166259;28;21022;-82
2023/05/06 01:29:08;;;;;;;22.23;12.10;;;;;;;16.24;100.00;98255.56;4172690;28;21200;-83
2023/05/06 01:31:13;;;;;;;12.40;11.20;;;;;;;16.21;100.00;98251.38;4165739;28;20692;-82
2023/05/06 01:33:20;;;;;;;12.13;10.90;;;;;;;16.19;100.00;98252.47;4166275;28;21218;-82
2023/05/06 01:35:29;;;;;;;11.90;10.70;;;;;;;16.16;100.00;98264.13;4170930;28;21351;-82
2023/05/06 01:37:42;;;;;;;14.60;11.80;;;;;;;16.17;100.00;98262.31;4168984;28;20643;-82
2023/05/06 01:39:47;;;;;;;11.70;10.60;;;;;;;16.16;100.00;98260.63;4150083;28;21067;-82
2023/05/06 01:41:52;;;;;;;11.13;10.00;;;;;;;16.15;100.00;98266.88;4165523;28;20630;-83
2023/05/06 01:43:56;;;;;;;11.87;10.30;;;;;;;16.11;100.00;98258.41;4181100;28;20632;-82
2023/05/06 01:46:00;;;;;;;11.00;10.03;;;;;;;16.09;100.00;98255.06;4169552;28;21260;-82
2023/05/06 01:48:06;;;;;;;12.40;10.07;;;;;;;16.07;100.00;98264.06;4166591;28;20650;-82
2023/05/06 01:50:10;;;;;;;13.30;9.93;;;;;;;16.05;100.00;98258.09;4154146;28;20641;-83
2023/05/06 01:52:15;;;;;;;10.30;9.30;;;;;;;16.05;100.00;98266.00;4165041;28;20658;-82
2023/05/06 01:54:19;;;;;;;10.40;9.30;;;;;;;16.04;100.00;98264.34;4167223;28;20694;-82
2023/05/06 01:56:22;;;;;;;10.43;8.93;;;;;;;16.04;100.00;98261.69;4149691;28;20643;-82
2023/05/06 01:58:27;;;;;;;10.30;8.60;;;;;;;16.02;100.00;98264.47;4169834;28;20630;-82
2023/05/06 02:00:30;;;;;;;8.77;8.00;;;;;;;16.01;100.00;98267.22;4169979;28;21298;-82
2023/05/06 02:02:33;;;;;;;9.93;8.50;;;;;;;15.99;100.00;98263.09;4164421;28;20630;-82
2023/05/06 02:04:37;;;;;;;11.20;8.70;;;;;;;15.97;100.00;98265.84;4153838;28;20633;-82
2023/05/06 02:06:40;;;;;;;9.30;8.40;;;;;;;15.93;100.00;98263.63;4156339;28;20674;-82
2023/05/06 02:08:44;;;;;;;10.17;8.80;;;;;;;15.91;100.00;98255.84;4172151;28;20728;-82
2023/05/06 02:10:51;;;;;;;9.30;8.33;;;;;;;15.88;100.00;98261.38;4169513;28;20651;-82
2023/05/06 02:12:56;;;;;;;10.43;8.10;;;;;;;15.87;100.00;98254.44;4170799;28;20657;-82
2023/05/06 02:15:00;;;;;;;8.73;7.93;;;;;;;15.84;100.00;98252.09;4168739;28;20762;-82
2023/05/06 02:17:04;;;;;;;9.97;7.77;;;;;;;15.84;100.00;98254.72;4148059;28;20638;-82
2023/05/06 02:19:08;;;;;;;8.73;7.90;;;;;;;15.82;100.00;98248.75;4167190;28;22905;-82
2023/05/06 02:21:11;;;;;;;8.97;7.90;;;;;;;15.83;100.00;98258.31;4155231;28;20747;-82
2023/05/06 02:23:14;;;;;;;8.57;7.70;;;;;;;15.80;100.00;98250.69;4171780;28;20658;-82
2023/05/06 02:25:17;;;;;;;9.20;7.53;;;;;;;15.80;100.00;98253.34;4168130;28;20743;-82
2023/05/06 02:27:21;;;;;;;9.00;8.10;;;;;;;15.80;100.00;98248.06;4154658;28;20635;-82
2023/05/06 02:29:24;;;;;;;8.63;7.83;;;;;;;15.81;100.00;98265.50;4166293;28;20652;-82
2023/05/06 02:31:28;;;;;;;8.30;7.60;;;;;;;15.80;100.00;98261.22;4168320;28;21207;-82
2023/05/06 02:33:31;;;;;;;10.07;8.03;;;;;;;15.81;100.00;98265.50;4168654;28;20633;-82
2023/05/06 02:35:34;;;;;;;9.67;8.67;;;;;;;15.80;100.00;98269.13;4162851;28;20648;-82
2023/05/06 02:37:37;;;;;;;9.70;8.50;;;;;;;15.81;100.00;98264.69;4172090;28;20985;-82
2023/05/06 02:39:40;;;;;;;9.10;7.87;;;;;;;15.81;100.00;98254.97;4173502;28;20640;-82
2023/05/06 02:41:43;;;;;;;11.27;8.40;;;;;;;15.83;100.00;98252.22;4157240;28;20648;-82
2023/05/06 02:43:46;;;;;;;9.70;8.70;;;;;;;15.83;100.00;98257.47;4171670;28;21266;-82
2023/05/06 02:45:49;;;;;;;10.07;9.03;;;;;;;15.82;100.00;98245.31;4159456;28;20636;-82
2023/05/06 02:47:55;;;;;;;9.10;8.20;;;;;;;15.82;100.00;98247.94;4154162;28;21219;-82
2023/05/06 02:49:58;;;;;;;8.77;7.97;;;;;;;15.83;100.00;98246.94;4169407;28;20623;-82
2023/05/06 02:52:01;;;;;;;10.00;8.63;;;;;;;15.82;100.00;98246.13;4165096;28;21734;-82
2023/05/06 02:54:04;;;;;;;9.13;8.20;;;;;;;15.82;100.00;98245.31;4173694;28;20999;-82
2023/05/06 02:56:07;;;;;;;8.47;7.67;;;;;;;15.83;100.00;98252.22;4158078;28;20646;-82
2023/05/06 02:58:10;;;;;;;10.50;9.40;;;;;;;15.83;100.00;98246.94;4173196;28;20693;-82
2023/05/06 03:00:15;;;;;;;9.63;8.47;;;;;;;15.84;100.00;98243.38;4160290;28;20650;-82
2023/05/06 03:02:18;;;;;;;8.90;8.00;;;;;;;15.82;100.00;98251.41;4172703;28;20688;-82
2023/05/06 03:04:22;;;;;;;9.60;8.60;;;;;;;15.82;100.00;98242.69;4169298;28;21272;-83
2023/05/06 03:06:26;;;;;;;9.60;8.70;;;;;;;15.82;100.00;98255.84;4171201;28;20687;-82
2023/05/06 03:08:29;;;;;;;9.60;8.63;;;;;;;15.83;100.00;98257.47;4167708;28;20658;-82
2023/05/06 03:10:32;;;;;;;9.63;8.63;;;;;;;15.83;100.00;98257.47;4171611;28;20697;-82
2023/05/06 03:12:35;;;;;;;9.63;8.23;;;;;;;15.82;100.00;98259.28;4158679;28;20668;-82
2023/05/06 03:14:39;;;;;;;9.20;8.30;;;;;;;15.80;100.00;98261.22;4171107;28;20632;-82
2023/05/06 03:16:42;;;;;;;11.13;8.97;;;;;;;15.79;100.00;98262.19;4170515;28;20645;-82
2023/05/06 03:18:45;;;;;;;12.73;8.67;;;;;;;15.81;100.00;98265.50;4168228;28;21083;-82
2023/05/06 03:20:50;;;;;;;10.03;8.77;;;;;;;15.80;100.00;98253.34;4168312;28;20732;-82
2023/05/06 03:22:54;;;;;;;8.80;7.90;;;;;;;15.84;100.00;98259.16;4169423;28;20636;-82
2023/05/06 03:24:57;;;;;;;8.70;7.90;;;;;;;15.80;100.00;98252.47;4154031;28;20675;-82
2023/05/06 03:27:02;;;;;;;9.90;8.90;;;;;;;15.75;100.00;98250.25;4152956;28;20656;-82
2023/05/06 03:29:06;;;;;;;9.23;8.07;;;;;;;15.72;100.00;98242.63;4156130;28;20656;-82
2023/05/06 03:31:09;;;;;;;9.10;8.20;;;;;;;15.71;100.00;98238.34;4150832;28;20649;-82
2023/05/06 03:33:13;;;;;;;10.23;8.40;;;;;;;15.72;100.00;98239.16;4172682;28;21276;-82
2023/05/06 03:35:17;;;;;;;11.90;8.60;;;;;;;15.70;100.00;98244.56;4174059;28;20627;-82
2023/05/06 03:37:26;;;;;;;10.40;9.30;;;;;;;15.69;100.00;98245.50;4150605;28;20643;-82
2023/05/06 03:39:31;;;;;;;9.70;8.70;;;;;;;15.69;100.00;98244.69;4172635;28;20688;-82
2023/05/06 03:41:36;;;;;;;11.77;10.10;;;;;;;15.68;100.00;98250.91;4153872;28;20743;-82
2023/05/06 03:43:39;;;;;;;13.67;10.17;;;;;;;15.68;100.00;98250.91;4167254;28;22211;-82
2023/05/06 03:45:42;;;;;;;12.10;10.43;;;;;;;15.68;100.00;98254.38;4155636;28;20632;-82
2023/05/06 03:47:45;;;;;;;12.13;10.70;;;;;;;15.68;100.00;98258.78;4153452;28;22598;-82
2023/05/06 03:49:51;;;;;;;11.07;10.07;;;;;;;15.69;100.00;98244.69;4170568;28;20689;-82
2023/05/06 03:51:54;;;;;;;12.17;10.87;;;;;;;15.68;100.00;98251.75;4159107;28;20699;-82
2023/05/06 03:54:01;;;;;;;11.50;10.27;;;;;;;15.64;100.00;98252.16;4150804;28;21275;-82
2023/05/06 03:56:06;;;;;;;13.63;9.70;;;;;;;15.64;100.00;98252.16;4164392;28;20693;-81
2023/05/06 03:58:11;;;;;;;10.50;9.40;;;;;;;15.65;100.00;98248.53;4161676;28;20647;-82
2023/05/06 04:00:16;;;;;;;11.50;10.10;;;;;;;15.65;100.00;98248.53;4154036;28;20732;-82
2023/05/06 04:02:21;;;;;;;11.47;10.13;;;;;;;15.66;100.00;98250.22;4158588;28;20627;-82
2023/05/06 04:04:26;;;;;;;10.83;9.73;;;;;;;15.66;100.00;98255.47;4150145;28;20640;-82
2023/05/06 04:06:29;;;;;;;10.70;9.63;;;;;;;15.66;100.00;98250.22;4180544;28;21219;-82
2023/05/06 04:08:32;;;;;;;12.77;10.60;;;;;;;15.63;100.00;98255.72;4162924;28;20636;-82
2023/05/06 04:10:40;;;;;;;12.43;10.23;;;;;;;15.59;100.00;98255.19;4153835;28;20634;-81
2023/05/06 04:12:51;;;;;;;12.67;11.33;;;;;;;15.59;100.00;98257.81;4159372;28;23020;-82
2023/05/06 04:14:59;;;;;;;15.20;11.90;;;;;;;15.59;100.00;98260.44;4158736;28;20646;-82
2023/05/06 04:17:03;;;;;;;13.27;11.10;;;;;;;15.59;100.00;98256.94;4173153;28;21263;-82
2023/05/06 04:19:07;;;;;;;12.87;11.40;;;;;;;15.60;100.00;98253.38;4149337;28;20672;-81
2023/05/06 04:21:11;;;;;;;13.93;12.53;;;;;;;15.61;100.00;98252.41;4171437;28;20660;-82
2023/05/06 04:23:17;;;;;;;15.10;12.60;;;;;;;15.61;100.00;98252.41;4174845;28;20685;-82
2023/05/06 04:25:21;;;;;;;13.97;12.57;;;;;;;15.58;100.00;98258.75;4168790;28;20643;-81
2023/05/06 04:27:28;;;;;;;16.77;13.53;;;;;;;15.56;100.00;98250.19;4171915;28;21268;-82
2023/05/06 04:29:31;;;;;;;13.93;12.43;;;;;;;15.55;100.00;98259.03;4127636;28;1103565;-81
2023/05/06 04:31:37;;;;;;;14.90;13.40;;;;;;;15.53;100.00;98252.25;4153281;28;20238;-82
2023/05/06 04:33:43;;;;;;;16.90;13.63;;;;;;;15.55;100.00;98264.28;4152590;28;20668;-81
2023/05/06 04:35:53;;;;;;;16.50;13.97;;;;;;;15.54;100.00;98253.88;4158751;28;22605;-81
2023/05/06 04:37:56;;;;;;;18.80;14.50;;;;;;;15.52;100.00;98261.09;4183031;28;21235;-82
2023/05/06 04:40:05;;;;;;;14.63;13.13;;;;;;;15.52;100.00;98273.41;4173087;28;20646;-82
2023/05/06 04:42:11;;;;;;;21.63;13.37;;;;;;;15.50;100.00;98265.66;4169922;28;20730;-81
2023/05/06 04:44:22;;;;;;;12.53;11.30;;;;;;;15.50;100.00;98276.16;4148242;28;20630;-81
2023/05/06 04:46:26;;;;;;;16.90;10.60;;;;;;;15.49;100.00;98276.31;4153041;28;21551;-81
2023/05/06 04:48:29;;;;;;;15.63;9.63;;;;;;;15.49;100.00;98271.03;4174485;28;21196;-81
2023/05/06 04:50:34;;;;;;;23.57;9.93;;;;;;;15.48;100.00;98269.38;4155201;28;20621;-81
2023/05/06 04:52:37;;;;;;;10.60;9.50;;;;;;;15.44;100.00;98270.56;4169081;28;20647;-81
2023/05/06 04:54:41;;;;;;;18.80;10.00;;;;;;;15.44;100.00;98281.09;4165825;28;20654;-81
2023/05/06 04:56:47;;;;;;;16.90;13.23;;;;;;;15.45;100.00;98277.50;4164710;28;20616;-81
2023/05/06 04:58:52;;;;;;;12.90;11.60;;;;;;;15.51;100.00;98283.06;4166148;28;20667;-82
2023/05/06 05:00:57;;;;;;;14.00;11.93;;;;;;;15.53;100.00;98281.16;4157557;28;20646;-82
2023/05/06 05:03:00;;;;;;;12.37;10.63;;;;;;;15.57;100.00;98274.66;4153361;28;20760;-81
2023/05/06 05:05:04;;;;;;;13.00;11.80;;;;;;;15.60;100.00;98284.91;4168053;28;20668;-81
2023/05/06 05:07:08;;;;;;;14.50;12.07;;;;;;;15.61;100.00;98282.16;4184691;28;20640;-81
2023/05/06 05:09:12;;;;;;;16.73;12.83;;;;;;;15.61;100.00;98287.41;4156425;28;20673;-81
2023/05/06 05:11:18;;;;;;;14.97;13.20;;;;;;;15.65;100.00;98295.88;4149064;28;21077;-82
2023/05/06 05:13:21;;;;;;;14.97;13.33;;;;;;;15.68;100.00;98296.47;4145993;28;21025;-82
2023/05/06 05:15:25;;;;;;;14.07;12.03;;;;;;;15.64;100.00;98300.31;4164029;28;20668;-82
2023/05/06 05:17:30;;;;;;;16.07;12.40;;;;;;;15.64;100.00;98295.03;4154768;28;20630;-82
2023/05/06 05:19:33;;;;;;;13.00;11.77;;;;;;;15.74;100.00;98301.19;4169409;28;20738;-82
2023/05/06 05:21:36;;;;;;;12.90;11.37;;;;;;;15.81;100.00;98306.75;4166046;28;20662;-81
2023/05/06 05:23:41;;;;;;;14.77;13.13;;;;;;;15.88;100.00;98302.66;4154346;28;20632;-81
2023/05/06 05:25:44;;;;;;;14.60;11.73;;;;;;;15.93;100.00;98308.34;4181181;28;20638;-81
2023/05/06 05:27:47;;;;;;;20.30;13.00;;;;;;;15.95;100.00;98311.66;4151869;28;21058;-81
2023/05/06 05:29:51;;;;;;;16.10;13.60;;;;;;;15.97;100.00;98312.38;4166868;28;21260;-81
2023/05/06 05:31:54;;;;;;;14.57;13.03;;;;;;;16.01;100.00;98314.59;4154050;28;21197;-81
2023/05/06 05:33:59;;;;;;;15.17;13.67;;;;;;;16.04;100.00;98323.06;4159616;28;21090;-81
2023/05/06 05:36:04;;;;;;;15.50;13.67;;;;;;;16.11;100.00;98326.00;4167011;28;20645;-81
2023/05/06 05:38:07;;;;;;;17.13;13.90;;;;;;;16.26;100.00;98322.06;4178128;28;20731;-81
2023/05/06 05:40:11;;;;;;;16.93;15.23;;;;;;;16.56;100.00;98328.94;4155881;28;20695;-81
2023/05/06 05:42:16;;;;;;;17.50;14.50;;;;;;;16.86;100.00;98326.22;4169440;28;20636;-82
2023/05/06 05:44:20;;;;;;;17.83;15.93;;;;;;;17.14;100.00;98338.59;4155407;28;21011;-82
2023/05/06 05:46:24;;;;;;;16.53;14.93;;;;;;;17.46;100.00;98341.78;4164161;28;21236;-81
2023/05/06 05:48:31;;;;;;;17.47;14.83;;;;;;;17.55;99.95;98347.03;4157239;28;21212;-82
2023/05/06 05:50:37;;;;;;;16.60;14.87;;;;;;;17.57;99.69;98353.81;4169614;28;20677;-82
2023/05/06 05:52:41;;;;;;;15.50;13.93;;;;;;;17.59;99.51;98338.69;4168399;28;21225;-82
2023/05/06 05:54:44;;;;;;;24.07;14.97;;;;;;;17.79;97.54;98347.41;4173681;28;20889;-82
2023/05/06 05:56:47;;;;;;;15.73;13.97;;;;;;;17.76;97.34;98351.16;4151187;28;20619;-82
2023/05/06 05:58:51;;;;;;;15.30;13.70;;;;;;;17.67;96.41;98341.47;4152349;28;20688;-82
2023/05/06 06:00:54;;;;;;;14.67;12.60;;;;;;;17.63;96.06;98341.88;4169577;28;20738;-82
2023/05/06 06:02:58;;;;;;;15.23;13.67;;;;;;;17.48;96.43;98345.94;4170680;28;20699;-82
2023/05/06 06:05:01;;;;;;;15.83;13.40;;;;;;;17.39;94.85;98338.03;4150400;28;20692;-82
2023/05/06 06:07:06;;;;;;;16.57;13.33;;;;;;;17.34;94.97;98340.25;4185880;28;20997;-82
2023/05/06 06:09:13;;;;;;;14.93;13.50;;;;;;;17.37;95.42;98340.00;4168050;28;20687;-82
2023/05/06 06:11:17;;;;;;;16.20;14.30;;;;;;;17.42;96.32;98346.50;4153607;28;20726;-82
2023/05/06 06:13:20;;;;;;;19.20;15.17;;;;;;;17.44;96.41;98343.72;4160998;28;20636;-82
2023/05/06 06:15:24;;;;;;;15.83;14.03;;;;;;;17.43;96.16;98334.97;4155749;28;21254;-82
2023/05/06 06:17:28;;;;;;;16.90;14.83;;;;;;;17.42;95.39;98343.03;4150459;28;20725;-82
2023/05/06 06:19:32;;;;;;;14.70;13.20;;;;;;;17.34;93.78;98343.72;4164473;28;20640;-82
2023/05/06 06:21:35;;;;;;;13.67;12.37;;;;;;;17.27;93.00;98337.34;4155730;28;20631;-82
2023/05/06 06:23:40;;;;;;;12.90;11.53;;;;;;;17.20;91.25;98335.34;4172243;28;20633;-82
2023/05/06 06:25:43;;;;;;;14.27;12.63;;;;;;;17.19;90.59;98336.34;4152368;28;20718;-82
2023/05/06 06:27:46;;;;;;;13.63;12.00;;;;;;;17.37;91.82;98340.00;4167460;28;20676;-82
2023/05/06 06:29:49;;;;;;;13.47;12.10;;;;;;;17.71;92.43;98342.84;4156232;28;20638;-82
2023/05/06 06:31:54;;;;;;;14.33;11.87;;;;;;;17.88;91.19;98350.03;4167905;28;20683;-82
2023/05/06 06:33:58;;;;;;;12.63;11.50;;;;;;;18.01;89.94;98347.88;4161298;28;20637;-82
2023/05/06 06:36:01;;;;;;;14.70;11.40;;;;;;;18.11;89.62;98348.69;4173504;28;20700;-83
2023/05/06 06:38:04;;;;;;;14.53;11.40;;;;;;;18.08;89.79;98341.06;4166154;28;20741;-83
2023/05/06 06:40:10;;;;;;;13.10;11.87;;;;;;;18.14;90.62;98356.34;4155328;28;20643;-80
2023/05/06 06:42:13;;;;;;;13.20;11.53;;;;;;;18.36;89.70;98348.03;4165902;28;20735;-80
2023/05/06 06:44:25;;;;;;;12.97;11.70;;;;;;;18.60;88.92;98347.38;4174818;28;20626;-79
2023/05/06 06:46:28;;;;;;;12.00;10.90;;;;;;;18.83;87.37;98351.25;4169405;28;20635;-79
2023/05/06 06:48:31;;;;;;;12.93;10.83;;;;;;;19.10;88.29;98354.72;4148973;28;21252;-79
2023/05/06 06:50:34;;;;;;;12.77;11.50;;;;;;;19.30;86.53;98358.03;4171740;28;20651;-79
2023/05/06 06:52:37;;;;;;;11.87;10.77;;;;;;;19.49;86.99;98369.31;4168570;28;20637;-79
2023/05/06 06:54:40;;;;;;;12.40;11.20;;;;;;;19.58;88.23;98361.25;4173157;28;20825;-79
2023/05/06 06:56:45;;;;;;;12.00;10.90;;;;;;;19.65;85.95;98364.97;4167544;28;21229;-79
2023/05/06 06:58:48;;;;;;;13.30;11.20;;;;;;;19.79;86.85;98368.88;4173163;28;20646;-79
2023/05/06 07:00:53;;;;;;;12.20;11.10;;;;;;;19.76;86.14;98370.00;4163203;28;20623;-79
2023/05/06 07:02:56;;;;;;;11.33;9.90;;;;;;;19.78;83.91;98367.22;4165234;28;20619;-79
2023/05/06 07:04:59;;;;;;;11.73;10.53;;;;;;;19.98;82.88;98374.81;4151925;28;20691;-80
2023/05/06 07:07:02;;;;;;;11.20;10.23;;;;;;;20.12;83.09;98371.63;4167757;28;20985;-80
2023/05/06 07:09:05;;;;;;;12.10;10.80;;;;;;;20.17;82.53;98378.09;4149139;28;20652;-80
2023/05/06 07:11:08;;;;;;;11.87;10.77;;;;;;;20.17;82.86;98379.91;4162217;28;20656;-79
2023/05/06 07:13:13;;;;;;;11.87;10.67;;;;;;;19.98;83.85;98375.66;4168187;28;20760;-79
2023/05/06 07:15:17;;;;;;;11.73;10.63;;;;;;;19.81;84.50;98372.19;4168809;28;20662;-79
2023/05/06 07:17:20;;;;;;;12.07;10.90;;;;;;;19.61;84.23;98366.25;4173530;28;20629;-79
2023/05/06 07:19:23;;;;;;;11.80;10.60;;;;;;;19.46;83.21;98361.66;4174780;28;21837;-79
2023/05/06 07:21:26;;;;;;;13.03;11.73;;;;;;;19.30;84.08;98360.69;4161586;28;20660;-79
2023/05/06 07:23:30;;;;;;;12.80;11.57;;;;;;;19.20;85.43;98362.56;4172289;28;20686;-79
2023/05/06 07:25:34;;;;;;;11.37;10.33;;;;;;;19.27;86.08;98364.47;4174745;28;20628;-79
2023/05/06 07:27:37;;;;;;;11.40;10.33;;;;;;;19.25;85.97;98368.25;4161383;28;20680;-79
2023/05/06 07:29:41;;;;;;;11.60;10.50;;;;;;;19.63;85.02;98376.69;4186489;28;20641;-79
2023/05/06 07:31:45;;;;;;;10.80;9.70;;;;;;;20.19;84.93;98383.22;4160188;28;20647;-78
2023/05/06 07:33:48;;;;;;;9.80;9.00;;;;;;;20.63;82.11;98377.69;4176372;28;21315;-79
2023/05/06 07:35:52;;;;;;;11.00;9.03;;;;;;;21.02;80.57;98387.63;4178280;28;20651;-79
2023/05/06 07:37:55;;;;;;;11.23;10.20;;;;;;;21.32;81.40;98388.66;4174106;28;20631;-79
2023/05/06 07:39:59;;;;;;;12.23;10.93;;;;;;;21.39;78.77;98389.69;4173499;28;20644;-79
2023/05/06 07:42:02;;;;;;;11.63;10.57;;;;;;;21.49;81.09;98395.69;4169456;28;20640;-79
2023/05/06 07:44:05;;;;;;;11.27;10.27;;;;;;;21.56;80.66;98391.38;4173196;28;20644;-79
2023/05/06 07:46:10;;;;;;;11.90;10.33;;;;;;;21.48;80.30;98390.53;4172710;28;21235;-79
2023/05/06 07:48:13;;;;;;;9.90;9.00;;;;;;;21.50;78.58;98393.84;4175367;28;20656;-79
2023/05/06 07:50:16;;;;;;;10.40;9.33;;;;;;;21.63;75.58;98394.22;4171639;28;20661;-79
2023/05/06 07:52:19;;;;;;;10.43;9.10;;;;;;;21.65;76.70;98390.41;4169601;28;20716;-80
2023/05/06 07:54:23;;;;;;;8.93;8.03;;;;;;;21.87;75.68;98395.84;4166748;28;21378;-79
2023/05/06 07:56:26;;;;;;;8.60;7.80;;;;;;;22.01;74.34;98391.69;4159948;28;20665;-79
2023/05/06 07:58:29;;;;;;;9.20;8.40;;;;;;;22.19;76.52;98395.84;4149874;28;20648;-81
2023/05/06 08:00:33;;;;;;;25.57;10.77;;;;;;;22.21;73.82;98399.19;4169590;28;20634;-81
2023/05/06 08:02:38;;;;;;;8.53;7.50;;;;;;;22.27;74.39;98396.66;4169653;28;21205;-81
2023/05/06 08:04:41;;;;;;;8.43;7.73;;;;;;;22.37;77.02;98404.44;4173012;28;20641;-81
2023/05/06 08:06:44;;;;;;;7.80;7.07;;;;;;;22.33;75.03;98395.16;4172479;28;20633;-81
2023/05/06 08:08:48;;;;;;;8.03;7.23;;;;;;;22.31;77.00;98394.50;4171071;28;20620;-81
2023/05/06 08:10:53;;;;;;;8.00;7.20;;;;;;;22.24;73.83;98383.72;4169885;28;20665;-81
2023/05/06 08:12:56;;;;;;;8.00;7.20;;;;;;;22.35;80.07;98393.16;4151533;28;20635;-81
2023/05/06 08:14:59;;;;;;;7.30;6.70;;;;;;;22.45;78.24;98386.66;4172868;28;20699;-80
2023/05/06 08:17:02;;;;;;;7.03;6.43;;;;;;;22.60;73.14;98384.13;4156731;28;20619;-80
2023/05/06 08:19:07;;;;;;;7.87;6.37;;;;;;;22.77;74.95;98392.66;4170626;28;21059;-80
2023/05/06 08:21:11;;;;;;;7.37;6.77;;;;;;;22.84;74.94;98388.31;4170294;28;20630;-80
2023/05/06 08:23:14;;;;;;;6.50;5.80;;;;;;;22.89;73.48;98393.13;4168286;28;20727;-80
2023/05/06 08:25:17;;;;;;;7.80;6.40;;;;;;;22.89;75.22;98395.78;4177255;28;21334;-80
2023/05/06 08:27:21;;;;;;;6.50;6.00;;;;;;;23.00;76.39;98390.09;4152105;28;20639;-80
2023/05/06 08:29:24;;;;;;;9.03;6.37;;;;;;;23.16;72.13;98388.19;4171128;28;20664;-80
2023/05/06 08:31:27;;;;;;;7.80;7.10;;;;;;;23.30;72.74;98388.28;4172579;28;21240;-80
2023/05/06 08:33:30;;;;;;;7.40;6.70;;;;;;;23.31;68.69;98381.94;4173007;28;20664;-80
2023/05/06 08:35:35;;;;;;;6.97;6.37;;;;;;;23.24;73.36;98383.66;4172827;28;20650;-80
2023/05/06 08:37:38;;;;;;;6.30;5.70;;;;;;;23.38;73.20;98390.06;4171648;28;20718;-80
2023/05/06 08:39:41;;;;;;;6.77;6.17;;;;;;;23.52;76.89;98392.78;4171477;28;21058;-80
2023/05/06 08:41:47;;;;;;;6.37;5.77;;;;;;;23.63;73.42;98400.34;4170033;28;20724;-80
2023/05/06 08:43:50;;;;;;;6.47;5.90;;;;;;;23.62;71.68;98392.53;4168306;28;20693;-80
2023/05/06 08:45:54;;;;;;;7.13;6.43;;;;;;;23.58;71.53;98386.75;4154500;28;20647;-81
2023/05/06 08:47:57;;;;;;;6.60;6.10;;;;;;;23.58;71.57;98384.06;4170294;28;20639;-82
2023/05/06 08:50:01;;;;;;;5.50;5.00;;;;;;;23.57;70.29;98382.41;4172466;28;20635;-82
2023/05/06 08:52:05;;;;;;;6.70;5.20;;;;;;;23.55;70.21;98384.44;4171112;28;20723;-82
2023/05/06 08:54:10;;;;;;;5.60;5.10;;;;;;;23.68;71.80;98379.38;4165676;28;21683;-81
2023/05/06 08:56:13;;;;;;;7.53;5.93;;;;;;;23.74;70.84;98373.34;4168599;28;20746;-81
2023/05/06 08:58:17;;;;;;;5.47;4.43;;;;;;;23.75;70.88;98383.81;4167267;28;20666;-81
2023/05/06 09:00:20;;;;;;;5.70;5.20;;;;;;;23.75;69.38;98377.63;4171118;28;20719;-81
2023/05/06 09:02:24;;;;;;;6.90;5.37;;;;;;;23.71;72.27;98376.34;4169630;28;20634;-81
2023/05/06 09:04:27;;;;;;;6.23;4.13;;;;;;;23.60;69.35;98375.91;4158914;28;21322;-81
2023/05/06 09:06:30;;;;;;;4.10;3.43;;;;;;;23.64;68.95;98378.06;4175994;28;20722;-81
2023/05/06 09:08:35;;;;;;;3.80;3.40;;;;;;;23.55;66.31;98367.63;4174517;28;21094;-81
2023/05/06 09:10:43;;;;;;;3.83;3.10;;;;;;;23.49;68.61;98373.66;4168130;28;20678;-81
2023/05/06 09:12:46;;;;;;;3.40;3.10;;;;;;;23.36;67.33;98368.94;4173182;28;21256;-81
2023/05/06 09:14:50;;;;;;;3.43;3.13;;;;;;;23.29;67.53;98367.97;4172397;28;20655;-81
2023/05/06 09:16:53;;;;;;;4.50;4.10;;;;;;;23.30;68.06;98369.63;4181539;28;21359;-81
2023/05/06 09:18:56;;;;;;;3.00;1.90;;;;;;;23.43;66.75;98371.72;4170866;28;20643;-80
2023/05/06 09:20:59;;;;;;;4.00;3.00;;;;;;;23.49;64.27;98366.50;4167950;28;20637;-81
2023/05/06 09:23:03;;;;;;;5.47;3.83;;;;;;;23.08;63.94;98358.97;4153012;28;20720;-81
2023/05/06 09:25:08;;;;;;;3.67;3.33;;;;;;;22.58;64.13;98355.03;4150376;28;21207;-82
2023/05/06 09:27:12;;;;;;;4.93;3.23;;;;;;;22.27;64.88;98362.09;4165717;28;20644;-81
2023/05/06 09:29:17;;;;;;;3.67;3.33;;;;;;;22.40;66.65;98350.94;4169310;28;20650;-81
2023/05/06 09:31:21;;;;;;;3.70;3.40;;;;;;;22.67;69.33;98353.16;4157740;28;20649;-81